Portage Des Sioux, MO

6:42 PM CST on February 11, 2016 (GMT -0600)
Saint Charles County Smartt | | Change Station
CLOSE
Current Station
Airport
Location: St. Charles,
Elevation: 436 ft
Nearby Weather Stations

Elev 436 ft 38.93 °N, 90.43 °W | Updated 48 minutes ago

Overcast
Overcast
26 °F
Feels Like 19 °F
N
6
Wind Variable Wind from ENE

Today
High -- | Low -- °F
--% Chance of Precip.
Yesterday
High -- | Low -- °F
Precip. -- in
Pressure 30.32 in
Visibility 10.0 miles
Clouds Overcast 10000 ft
Windchill 19 °F
Dew Point 11 °F
Humidity 53%
Rainfall 0.00 in
Snow Depth Not available.
6:58 AM 5:34 PM
Waxing Crescent, 15% visible
METAR KSET 112354Z AUTO 06005KT 10SM OVC100 M03/M12 A3030 RMK AO2 SLP265 T10331117 11011 21033 58002
Pressure 30.32 in
Visibility 10.0 miles
Clouds Overcast 10000 ft
Windchill 19 °F
Dew Point 11 °F
Humidity 53%
Rainfall 0.00 in
Snow Depth Not available.
6:58 AM 5:34 PM
Waxing Crescent, 15% visible
METAR KSET 112354Z AUTO 06005KT 10SM OVC100 M03/M12 A3030 RMK AO2 SLP265 T10331117 11011 21033 58002

10-Day Weather Forecast

Almanac

Astronomy

Feb. 11, 2016 Rise Set
Actual Time
Civil Twilight
Nautical Twilight
Astronomical Twilight
Moon
Length of Visible Light
Length of Day
Tomorrow will be .
, % of the Moon is Illuminated

Today's Extremes

State Highs State Lows

Community

WunderPhotos

Upload Photos

1,892,195 photos uploaded!

WunderBlog® & News

Nearby

Air Quality

  Air Quality AQ Index Pollutant
Not available.

Snow Depth

Station Depth Elevation

Earthquake Activity

City Distance Mag. Time & Date
Minimum magnitude displayed is 2.5.

Coastal Water Temperatures

Place Temperature

Stations

Nearby Weather Stations

Station Location Temp. Windchill Dew Point Humidity Wind Precip. Elev Updated Type
                   

Watches & Warnings

There are currently no watches in effect.